createdAt,value
2022-07-29T00:00:20.444Z,20.60
2022-07-29T00:02:49.096Z,20.70
2022-07-29T00:05:18.423Z,20.80
2022-07-29T00:07:56.110Z,20.90
2022-07-29T00:10:24.899Z,20.90
2022-07-29T00:12:54.364Z,20.90
2022-07-29T00:15:24.636Z,20.90
2022-07-29T00:17:55.287Z,20.80
2022-07-29T00:20:22.470Z,20.80
2022-07-29T00:22:51.976Z,20.70
2022-07-29T00:25:20.601Z,20.70
2022-07-29T00:27:51.630Z,20.70
2022-07-29T00:30:21.426Z,20.60
2022-07-29T00:32:58.500Z,20.60
2022-07-29T00:35:47.267Z,20.70
2022-07-29T00:38:18.038Z,20.70
2022-07-29T00:40:57.390Z,20.70
2022-07-29T00:43:26.214Z,20.70
2022-07-29T00:45:58.064Z,20.70
2022-07-29T00:48:34.085Z,20.70
2022-07-29T00:51:11.982Z,20.70
2022-07-29T00:53:52.249Z,20.70
2022-07-29T00:56:28.268Z,20.70
2022-07-29T00:59:16.800Z,20.60
2022-07-29T01:01:45.000Z,20.40
2022-07-29T01:04:14.669Z,20.30
2022-07-29T01:06:58.650Z,20.30
2022-07-29T01:09:35.974Z,20.40
2022-07-29T01:12:23.390Z,20.40
2022-07-29T01:14:54.634Z,20.30
2022-07-29T01:18:12.040Z,20.30
2022-07-29T01:21:13.609Z,20.30
2022-07-29T01:24:12.259Z,20.20
2022-07-29T01:27:08.864Z,20.30
2022-07-29T01:30:11.322Z,20.50
2022-07-29T01:32:44.159Z,20.50
2022-07-29T01:35:32.093Z,20.50
2022-07-29T01:38:07.068Z,20.40
2022-07-29T01:41:02.303Z,20.40
2022-07-29T01:43:38.874Z,20.30
2022-07-29T01:46:13.034Z,20.30
2022-07-29T01:48:54.574Z,20.30
2022-07-29T01:52:06.671Z,20.30
2022-07-29T01:54:52.038Z,20.20
2022-07-29T01:57:22.204Z,20.00
2022-07-29T01:59:51.843Z,19.90
2022-07-29T02:02:20.998Z,19.90
2022-07-29T02:04:50.745Z,19.80
2022-07-29T02:07:22.302Z,19.80
2022-07-29T02:09:52.109Z,19.80
2022-07-29T02:12:20.553Z,19.90
2022-07-29T02:14:51.653Z,19.90
2022-07-29T02:17:47.438Z,19.90
2022-07-29T02:20:15.040Z,19.90
2022-07-29T02:22:45.012Z,19.90
2022-07-29T02:25:13.754Z,19.80
2022-07-29T02:27:44.368Z,19.80
2022-07-29T02:30:13.698Z,19.80
2022-07-29T02:32:43.608Z,19.80
2022-07-29T02:35:11.779Z,19.80
2022-07-29T02:37:39.834Z,19.60
2022-07-29T02:40:11.901Z,19.60
2022-07-29T02:42:42.572Z,19.60
2022-07-29T02:45:18.836Z,19.60
2022-07-29T02:47:49.918Z,19.60
2022-07-29T02:50:36.198Z,19.60
2022-07-29T02:53:17.383Z,19.60
2022-07-29T02:55:58.284Z,19.50
2022-07-29T02:58:30.360Z,19.50
2022-07-29T03:01:00.789Z,19.30
2022-07-29T03:03:32.075Z,19.10
2022-07-29T03:06:02.283Z,19.00
2022-07-29T03:08:30.806Z,18.90
2022-07-29T03:11:09.197Z,18.90
2022-07-29T03:13:37.674Z,18.80
2022-07-29T03:16:06.308Z,18.80
2022-07-29T03:18:34.279Z,18.70
2022-07-29T03:21:01.982Z,18.60
2022-07-29T03:23:33.131Z,18.60
2022-07-29T03:26:04.238Z,18.60
2022-07-29T03:28:31.414Z,18.50
2022-07-29T03:30:59.070Z,18.60
2022-07-29T03:33:26.468Z,18.60
2022-07-29T03:35:53.573Z,18.70
2022-07-29T03:38:21.852Z,18.80
2022-07-29T03:40:58.699Z,18.80
2022-07-29T03:43:29.208Z,18.90
2022-07-29T03:45:57.565Z,18.80
2022-07-29T03:48:26.571Z,18.70
2022-07-29T03:50:53.868Z,18.80
2022-07-29T03:53:21.222Z,18.70
2022-07-29T03:55:58.967Z,18.50
2022-07-29T03:58:29.063Z,18.60
2022-07-29T04:00:56.689Z,18.50
2022-07-29T04:03:24.267Z,18.50
2022-07-29T04:06:07.264Z,18.60
2022-07-29T04:08:35.703Z,18.60
2022-07-29T04:11:03.980Z,18.40
2022-07-29T04:13:32.043Z,18.30
2022-07-29T04:15:59.491Z,18.30
2022-07-29T04:18:27.043Z,18.40
2022-07-29T04:20:54.246Z,18.50
2022-07-29T04:23:21.322Z,18.60
2022-07-29T04:25:48.625Z,18.50
2022-07-29T04:28:24.786Z,18.70
2022-07-29T04:30:51.974Z,19.00
2022-07-29T04:33:19.158Z,19.40
2022-07-29T04:35:50.442Z,19.80
2022-07-29T04:38:19.694Z,20.10
2022-07-29T04:40:47.277Z,20.40
2022-07-29T04:43:20.607Z,20.90
2022-07-29T04:45:50.283Z,21.30
2022-07-29T04:48:17.604Z,21.80
2022-07-29T04:50:45.376Z,21.90
2022-07-29T04:53:12.522Z,21.70
2022-07-29T04:55:39.602Z,21.60
2022-07-29T04:58:06.877Z,22.00
2022-07-29T05:00:34.102Z,22.80
2022-07-29T05:03:01.445Z,23.40
2022-07-29T05:05:28.658Z,23.90
2022-07-29T05:07:56.352Z,24.30
2022-07-29T05:10:23.849Z,24.50
2022-07-29T05:12:51.054Z,24.80
2022-07-29T05:15:18.777Z,25.00
2022-07-29T05:17:46.091Z,25.20
2022-07-29T05:20:16.238Z,24.80
2022-07-29T05:22:43.292Z,24.30
2022-07-29T05:25:10.754Z,23.90
2022-07-29T05:27:38.152Z,23.60
2022-07-29T05:30:05.717Z,23.70
2022-07-29T05:32:32.947Z,23.80
2022-07-29T05:35:00.077Z,24.30
2022-07-29T05:37:27.167Z,24.70
2022-07-29T05:39:56.951Z,25.20
2022-07-29T05:42:26.817Z,25.00
2022-07-29T05:44:54.582Z,25.00
2022-07-29T05:47:21.602Z,25.50
2022-07-29T05:49:48.674Z,25.60
2022-07-29T05:52:16.334Z,26.00
2022-07-29T05:54:43.778Z,26.10
2022-07-29T05:57:20.501Z,26.50
2022-07-29T05:59:49.147Z,26.00
2022-07-29T06:02:17.537Z,26.10
2022-07-29T06:04:47.894Z,26.60
2022-07-29T06:07:15.281Z,26.90
2022-07-29T06:09:42.403Z,27.00
2022-07-29T06:12:10.109Z,27.20
2022-07-29T06:14:38.949Z,27.40
2022-07-29T06:17:06.966Z,27.40
2022-07-29T06:19:36.597Z,27.20
2022-07-29T06:22:04.118Z,27.10
2022-07-29T06:24:31.779Z,27.10
2022-07-29T06:26:58.871Z,27.20
2022-07-29T06:29:26.372Z,26.80
2022-07-29T06:31:53.494Z,26.80
2022-07-29T06:34:20.845Z,26.60
2022-07-29T06:36:48.023Z,26.80
2022-07-29T06:39:15.966Z,26.60
2022-07-29T06:41:43.193Z,26.90
2022-07-29T06:44:12.933Z,27.30
2022-07-29T06:46:40.203Z,27.20
2022-07-29T06:49:07.805Z,27.30
2022-07-29T06:51:35.440Z,27.30
2022-07-29T06:54:03.794Z,27.50
2022-07-29T06:56:39.163Z,27.60
2022-07-29T06:59:10.354Z,27.80
2022-07-29T07:01:42.921Z,27.90
2022-07-29T07:04:11.072Z,27.90
2022-07-29T07:06:38.955Z,27.80
2022-07-29T07:09:11.989Z,27.50
2022-07-29T07:11:39.066Z,27.90
2022-07-29T07:14:06.164Z,28.30
2022-07-29T07:16:33.669Z,28.40
2022-07-29T07:19:01.207Z,28.50
2022-07-29T07:21:30.447Z,28.70
2022-07-29T07:23:58.515Z,28.90
2022-07-29T07:26:26.249Z,29.00
2022-07-29T07:28:53.388Z,29.20
2022-07-29T07:31:21.260Z,29.30
2022-07-29T07:33:48.490Z,29.50
2022-07-29T07:36:15.596Z,29.70
2022-07-29T07:38:42.716Z,29.90
2022-07-29T07:41:09.833Z,30.00
2022-07-29T07:43:36.938Z,30.00
2022-07-29T07:46:04.095Z,30.00
2022-07-29T07:48:31.311Z,30.20
2022-07-29T07:50:58.515Z,30.30
2022-07-29T07:53:25.653Z,30.40
2022-07-29T07:56:09.849Z,30.40
2022-07-29T07:58:38.571Z,30.50
2022-07-29T08:01:22.988Z,30.70
2022-07-29T08:03:51.547Z,30.70
2022-07-29T08:07:04.966Z,30.60
2022-07-29T08:09:32.157Z,30.60
2022-07-29T08:12:00.431Z,30.80
2022-07-29T08:14:27.531Z,31.00
2022-07-29T08:16:55.068Z,30.90
2022-07-29T08:19:22.474Z,30.60
2022-07-29T08:21:53.925Z,30.60
2022-07-29T08:24:40.851Z,30.70
2022-07-29T08:27:21.488Z,31.00
2022-07-29T08:29:57.081Z,31.10
2022-07-29T08:32:50.814Z,31.10
2022-07-29T08:35:11.538Z,30.90
2022-07-29T08:37:38.677Z,31.30
2022-07-29T08:40:07.406Z,31.30
2022-07-29T08:42:34.556Z,31.40
2022-07-29T08:45:02.196Z,31.60
2022-07-29T08:47:29.391Z,31.80
2022-07-29T08:49:56.502Z,31.90
2022-07-29T08:52:27.204Z,31.70
2022-07-29T08:54:54.996Z,31.40
2022-07-29T08:57:24.287Z,31.30
2022-07-29T08:59:55.577Z,31.20
2022-07-29T09:02:24.799Z,31.30
2022-07-29T09:04:51.979Z,31.60
2022-07-29T09:07:20.181Z,31.40
2022-07-29T09:09:47.631Z,31.10
2022-07-29T09:12:29.375Z,30.90
2022-07-29T09:14:57.094Z,30.90
2022-07-29T09:17:46.496Z,30.80
2022-07-29T09:20:19.829Z,30.60
2022-07-29T09:22:54.653Z,30.40
2022-07-29T09:25:40.401Z,30.30
2022-07-29T09:28:13.015Z,30.20
2022-07-29T09:31:00.451Z,30.00
2022-07-29T09:33:40.432Z,29.80
2022-07-29T09:36:12.752Z,29.70
2022-07-29T09:38:39.897Z,29.80
2022-07-29T09:41:09.144Z,29.80
2022-07-29T09:43:36.391Z,29.80
2022-07-29T09:46:15.972Z,29.70
2022-07-29T09:48:43.427Z,29.70
2022-07-29T09:51:25.469Z,29.80
2022-07-29T09:53:57.452Z,29.90
2022-07-29T09:56:44.415Z,29.90
2022-07-29T09:59:13.167Z,30.00
2022-07-29T10:01:40.427Z,30.10
2022-07-29T10:04:07.607Z,30.20
2022-07-29T10:06:34.687Z,30.20
2022-07-29T10:09:12.580Z,30.30
2022-07-29T10:11:48.369Z,30.30
2022-07-29T10:14:17.387Z,30.30
2022-07-29T10:16:44.976Z,30.30
2022-07-29T10:19:12.138Z,30.40
2022-07-29T10:21:40.858Z,30.40
2022-07-29T10:24:15.039Z,30.30
2022-07-29T10:26:43.077Z,30.20
2022-07-29T10:29:10.652Z,30.00
2022-07-29T10:32:05.800Z,29.80
2022-07-29T10:34:51.089Z,29.60
2022-07-29T10:37:27.004Z,29.50
2022-07-29T10:40:55.028Z,29.40
2022-07-29T10:43:31.897Z,29.10
2022-07-29T10:46:01.699Z,28.90
2022-07-29T10:48:28.827Z,28.90
2022-07-29T10:50:57.279Z,28.80
2022-07-29T10:53:25.597Z,28.70
2022-07-29T10:55:54.245Z,28.60
2022-07-29T10:58:24.407Z,28.70
2022-07-29T11:00:53.798Z,28.80
2022-07-29T11:03:49.236Z,28.80
2022-07-29T11:06:26.330Z,29.00
2022-07-29T11:09:25.704Z,29.10
2022-07-29T11:12:02.662Z,29.40
2022-07-29T11:14:53.340Z,29.50
2022-07-29T11:17:20.458Z,29.80
2022-07-29T11:19:52.118Z,29.90
2022-07-29T11:22:36.913Z,30.00
2022-07-29T11:25:18.259Z,30.20
2022-07-29T11:27:48.592Z,30.40
2022-07-29T11:30:15.881Z,30.50
2022-07-29T11:32:48.765Z,30.60
2022-07-29T11:35:37.886Z,30.70
2022-07-29T11:38:28.759Z,30.80
2022-07-29T11:41:30.214Z,30.90
2022-07-29T11:44:01.353Z,30.90
2022-07-29T11:46:54.122Z,30.60
2022-07-29T11:49:32.127Z,30.60
2022-07-29T11:52:04.328Z,30.60
2022-07-29T11:54:38.752Z,30.60
2022-07-29T11:57:22.547Z,30.60
2022-07-29T11:59:50.818Z,30.60
2022-07-29T12:02:36.913Z,30.30
2022-07-29T12:05:10.562Z,30.40
2022-07-29T12:07:41.305Z,30.40
2022-07-29T12:10:19.559Z,30.30
2022-07-29T12:12:53.972Z,30.40
2022-07-29T12:15:22.339Z,30.10
2022-07-29T12:17:49.760Z,29.80
2022-07-29T12:20:31.242Z,29.90
2022-07-29T12:22:58.328Z,29.90
2022-07-29T12:25:33.967Z,30.00
2022-07-29T12:28:03.997Z,30.00
2022-07-29T12:30:46.416Z,30.00
2022-07-29T12:33:19.017Z,30.00
2022-07-29T12:36:03.485Z,29.90
2022-07-29T12:38:36.116Z,29.90
2022-07-29T12:41:04.818Z,29.70
2022-07-29T12:43:32.406Z,29.60
2022-07-29T12:46:13.362Z,29.60
2022-07-29T12:48:43.499Z,29.40
2022-07-29T12:51:12.886Z,29.40
2022-07-29T12:53:40.564Z,29.50
2022-07-29T12:56:41.371Z,29.40
2022-07-29T12:59:24.119Z,29.20
2022-07-29T13:01:53.410Z,29.40
2022-07-29T13:04:31.369Z,29.70
2022-07-29T13:07:04.886Z,29.90
2022-07-29T13:09:49.700Z,30.00
2022-07-29T13:12:16.922Z,29.80
2022-07-29T13:14:48.829Z,29.60
2022-07-29T13:17:18.833Z,29.10
2022-07-29T13:20:17.282Z,28.60
2022-07-29T13:22:48.528Z,28.60
2022-07-29T13:25:15.688Z,28.70
2022-07-29T13:27:42.752Z,28.90
2022-07-29T13:30:11.760Z,29.00
2022-07-29T13:32:38.883Z,28.90
2022-07-29T13:35:09.145Z,28.90
2022-07-29T13:37:39.556Z,28.80
2022-07-29T13:40:11.103Z,28.80
2022-07-29T13:42:38.752Z,28.90
2022-07-29T13:45:07.850Z,29.10
2022-07-29T13:47:35.211Z,29.20
2022-07-29T13:50:04.435Z,29.60
2022-07-29T13:52:33.378Z,29.40
2022-07-29T13:55:01.582Z,29.40
2022-07-29T13:57:29.403Z,28.80
2022-07-29T13:59:56.756Z,28.60
2022-07-29T14:02:25.668Z,28.50
2022-07-29T14:04:54.755Z,28.30
2022-07-29T14:07:22.631Z,28.30
2022-07-29T14:09:49.770Z,28.60
2022-07-29T14:12:16.994Z,28.80
2022-07-29T14:14:44.249Z,28.90
2022-07-29T14:17:14.731Z,29.10
2022-07-29T14:19:42.083Z,29.10
2022-07-29T14:22:09.907Z,29.30
2022-07-29T14:24:38.413Z,29.40
2022-07-29T14:27:07.368Z,29.60
2022-07-29T14:29:38.263Z,29.60
2022-07-29T14:32:16.024Z,29.60
2022-07-29T14:34:43.226Z,29.60
2022-07-29T14:37:15.795Z,29.60
2022-07-29T14:39:43.600Z,29.50
2022-07-29T14:42:12.573Z,29.60
2022-07-29T14:44:40.888Z,29.40
2022-07-29T14:47:08.773Z,29.40
2022-07-29T14:49:36.734Z,29.20
2022-07-29T14:52:04.240Z,29.00
2022-07-29T14:54:31.304Z,29.30
2022-07-29T14:56:58.924Z,29.50
2022-07-29T14:59:27.282Z,29.60
2022-07-29T15:01:54.872Z,29.20
2022-07-29T15:04:22.135Z,28.70
2022-07-29T15:06:49.741Z,28.10
2022-07-29T15:09:16.949Z,27.90
2022-07-29T15:11:44.211Z,27.70
2022-07-29T15:14:11.692Z,27.80
2022-07-29T15:16:43.495Z,27.90
2022-07-29T15:19:12.157Z,27.90
2022-07-29T15:21:41.586Z,27.70
2022-07-29T15:24:17.399Z,27.80
2022-07-29T15:26:45.068Z,27.70
2022-07-29T15:29:12.194Z,27.80
2022-07-29T15:31:39.729Z,27.80
2022-07-29T15:34:07.767Z,27.60
2022-07-29T15:36:51.593Z,27.30
2022-07-29T15:39:20.176Z,27.10
2022-07-29T15:41:47.560Z,27.10
2022-07-29T15:44:14.632Z,27.00
2022-07-29T15:47:00.788Z,27.10
2022-07-29T15:49:47.081Z,27.20
2022-07-29T15:52:25.720Z,27.30
2022-07-29T15:54:57.971Z,27.30
2022-07-29T15:57:25.518Z,27.20
2022-07-29T15:59:53.011Z,27.30
2022-07-29T16:02:20.877Z,27.10
2022-07-29T16:04:48.065Z,27.00
2022-07-29T16:07:15.623Z,27.00
2022-07-29T16:09:43.849Z,27.00
2022-07-29T16:12:15.199Z,27.00
2022-07-29T16:14:43.988Z,27.10
2022-07-29T16:17:14.340Z,27.10
2022-07-29T16:19:54.595Z,27.00
2022-07-29T16:22:21.746Z,26.80
2022-07-29T16:24:48.800Z,26.80
2022-07-29T16:27:15.887Z,26.90
2022-07-29T16:29:43.124Z,26.90
2022-07-29T16:32:10.549Z,26.90
2022-07-29T16:34:37.931Z,26.90
2022-07-29T16:37:05.712Z,26.80
2022-07-29T16:39:33.351Z,26.70
2022-07-29T16:42:03.053Z,26.60
2022-07-29T16:44:32.182Z,26.70
2022-07-29T16:46:59.982Z,26.60
2022-07-29T16:49:28.784Z,26.50
2022-07-29T16:51:56.067Z,26.60
2022-07-29T16:54:23.356Z,26.50
2022-07-29T16:56:50.569Z,26.50
2022-07-29T16:59:17.677Z,26.50
2022-07-29T17:01:45.233Z,26.50
2022-07-29T17:04:15.079Z,26.60
2022-07-29T17:06:42.854Z,26.50
2022-07-29T17:09:11.834Z,26.50
2022-07-29T17:11:51.754Z,26.40
2022-07-29T17:14:26.320Z,26.40
2022-07-29T17:17:01.288Z,26.30
2022-07-29T17:19:36.135Z,26.20
2022-07-29T17:22:18.799Z,26.10
2022-07-29T17:24:47.661Z,26.10
2022-07-29T17:27:16.624Z,26.10
2022-07-29T17:29:44.451Z,26.00
2022-07-29T17:32:11.723Z,26.00
2022-07-29T17:34:41.410Z,25.90
2022-07-29T17:37:09.955Z,25.90
2022-07-29T17:39:41.946Z,25.80
2022-07-29T17:42:13.886Z,25.70
2022-07-29T17:44:41.982Z,25.70
2022-07-29T17:47:15.866Z,25.70
2022-07-29T17:49:44.431Z,25.70
2022-07-29T17:52:11.668Z,25.70
2022-07-29T17:54:38.781Z,25.70
2022-07-29T17:57:05.836Z,25.70
2022-07-29T17:59:33.021Z,25.70
2022-07-29T18:02:00.228Z,25.60
2022-07-29T18:04:29.155Z,25.50
2022-07-29T18:06:56.558Z,25.50
2022-07-29T18:09:24.016Z,25.50
2022-07-29T18:11:52.821Z,25.30
2022-07-29T18:14:20.046Z,24.90
2022-07-29T18:16:47.186Z,24.60
2022-07-29T18:19:14.466Z,24.50
2022-07-29T18:21:51.218Z,24.30
2022-07-29T18:24:21.537Z,24.20
2022-07-29T18:26:48.622Z,24.10
2022-07-29T18:29:15.716Z,24.00
2022-07-29T18:31:42.846Z,24.00
2022-07-29T18:34:10.017Z,24.10
2022-07-29T18:36:37.122Z,24.20
2022-07-29T18:39:04.506Z,24.30
2022-07-29T18:41:32.107Z,24.30
2022-07-29T18:43:59.192Z,24.30
2022-07-29T18:46:26.363Z,24.10
2022-07-29T18:48:53.642Z,24.00
2022-07-29T18:51:22.691Z,23.90
2022-07-29T18:53:49.886Z,23.90
2022-07-29T18:56:17.306Z,23.90
2022-07-29T18:58:44.517Z,23.80
2022-07-29T19:01:16.443Z,23.80
2022-07-29T19:03:43.984Z,23.80
2022-07-29T19:06:11.167Z,23.80
2022-07-29T19:08:38.285Z,23.70
2022-07-29T19:11:05.373Z,23.70
2022-07-29T19:13:33.563Z,23.70
2022-07-29T19:16:00.765Z,23.70
2022-07-29T19:18:27.964Z,23.70
2022-07-29T19:20:55.171Z,23.70
2022-07-29T19:23:22.297Z,23.70
2022-07-29T19:25:53.534Z,23.60
2022-07-29T19:28:22.109Z,23.20
2022-07-29T19:30:50.172Z,23.00
2022-07-29T19:33:21.108Z,22.90
2022-07-29T19:35:52.878Z,22.50
2022-07-29T19:38:22.061Z,22.50
2022-07-29T19:40:49.230Z,22.70
2022-07-29T19:43:50.480Z,22.90
2022-07-29T19:46:03.722Z,22.90
2022-07-29T19:48:31.005Z,22.90
2022-07-29T19:50:58.117Z,22.90
2022-07-29T19:53:25.295Z,22.90
2022-07-29T19:55:52.484Z,23.00
2022-07-29T19:58:19.775Z,23.00
2022-07-29T20:00:50.651Z,23.00
2022-07-29T20:03:17.811Z,23.20
2022-07-29T20:05:47.920Z,23.20
2022-07-29T20:08:15.536Z,23.30
2022-07-29T20:10:42.652Z,23.30
2022-07-29T20:13:09.804Z,23.40
2022-07-29T20:15:36.944Z,23.50
2022-07-29T20:18:04.295Z,23.50
2022-07-29T20:20:31.466Z,23.60
2022-07-29T20:22:59.420Z,23.60
2022-07-29T20:25:26.640Z,23.60
2022-07-29T20:27:54.498Z,23.70
2022-07-29T20:30:22.800Z,23.60
2022-07-29T20:32:50.769Z,23.50
2022-07-29T20:35:19.749Z,23.30
2022-07-29T20:37:52.463Z,23.20
2022-07-29T20:40:24.392Z,23.20
2022-07-29T20:42:52.196Z,23.00
2022-07-29T20:45:20.274Z,23.00
2022-07-29T20:47:47.407Z,22.80
2022-07-29T20:50:14.560Z,22.70
2022-07-29T20:52:43.483Z,22.50
2022-07-29T20:55:11.126Z,22.40
2022-07-29T20:57:39.846Z,22.30
2022-07-29T21:00:09.261Z,22.10
2022-07-29T21:02:36.863Z,21.70
2022-07-29T21:05:05.948Z,21.20
2022-07-29T21:07:33.221Z,20.80
2022-07-29T21:10:00.427Z,20.60
2022-07-29T21:12:29.696Z,20.40
2022-07-29T21:15:00.846Z,20.20
2022-07-29T21:17:28.468Z,20.10
2022-07-29T21:19:59.196Z,19.90
2022-07-29T21:22:28.120Z,19.80
2022-07-29T21:24:57.751Z,19.60
2022-07-29T21:27:44.870Z,19.60
2022-07-29T21:30:16.306Z,19.60
2022-07-29T21:32:52.363Z,19.40
2022-07-29T21:36:06.301Z,19.40
2022-07-29T21:38:14.541Z,19.40
2022-07-29T21:41:06.248Z,19.30
2022-07-29T21:43:38.506Z,19.40
2022-07-29T21:46:12.803Z,19.40
2022-07-29T21:48:44.665Z,19.40
2022-07-29T21:51:13.461Z,19.50
2022-07-29T21:53:49.452Z,19.60
2022-07-29T21:56:27.538Z,19.70
2022-07-29T21:59:00.960Z,19.50
2022-07-29T22:01:39.444Z,19.60
2022-07-29T22:04:10.992Z,19.60
2022-07-29T22:06:41.185Z,19.50
2022-07-29T22:09:14.241Z,19.60
2022-07-29T22:11:44.446Z,19.60
2022-07-29T22:14:15.426Z,19.50
2022-07-29T22:16:45.875Z,19.30
2022-07-29T22:19:17.851Z,19.10
2022-07-29T22:22:09.462Z,19.10
2022-07-29T22:24:45.882Z,19.10
